sensor_id;sensor_type;location;lat;lon;timestamp;temperature;humidity
16076;DHT22;8142;48.242;11.644;2022-08-21T00:01:25;18.20;99.90
16076;DHT22;8142;48.242;11.644;2022-08-21T00:03:52;18.20;99.90
16076;DHT22;8142;48.242;11.644;2022-08-21T00:06:18;18.20;99.90
16076;DHT22;8142;48.242;11.644;2022-08-21T00:08:44;18.20;99.90
16076;DHT22;8142;48.242;11.644;2022-08-21T00:11:10;18.20;99.90
16076;DHT22;8142;48.242;11.644;2022-08-21T00:13:36;18.20;99.90
16076;DHT22;8142;48.242;11.644;2022-08-21T00:16:03;18.20;99.90
16076;DHT22;8142;48.242;11.644;2022-08-21T00:18:29;18.20;99.90
16076;DHT22;8142;48.242;11.644;2022-08-21T00:20:54;18.20;99.90
16076;DHT22;8142;48.242;11.644;2022-08-21T00:23:21;18.20;99.90
16076;DHT22;8142;48.242;11.644;2022-08-21T00:25:47;18.10;99.90
16076;DHT22;8142;48.242;11.644;2022-08-21T00:28:13;18.10;99.90
16076;DHT22;8142;48.242;11.644;2022-08-21T00:30:39;18.10;99.90
16076;DHT22;8142;48.242;11.644;2022-08-21T00:33:07;18.10;99.90
16076;DHT22;8142;48.242;11.644;2022-08-21T00:35:37;18.00;99.90
16076;DHT22;8142;48.242;11.644;2022-08-21T00:38:04;18.00;99.90
16076;DHT22;8142;48.242;11.644;2022-08-21T00:40:37;18.00;99.90
16076;DHT22;8142;48.242;11.644;2022-08-21T00:43:05;18.00;99.90
16076;DHT22;8142;48.242;11.644;2022-08-21T00:45:31;18.00;99.90
16076;DHT22;8142;48.242;11.644;2022-08-21T00:47:57;18.00;99.90
16076;DHT22;8142;48.242;11.644;2022-08-21T00:50:28;18.00;99.90
16076;DHT22;8142;48.242;11.644;2022-08-21T00:52:55;17.90;99.90
16076;DHT22;8142;48.242;11.644;2022-08-21T00:55:22;17.90;99.90
16076;DHT22;8142;48.242;11.644;2022-08-21T00:57:52;17.90;99.90
16076;DHT22;8142;48.242;11.644;2022-08-21T01:00:24;17.90;99.90
16076;DHT22;8142;48.242;11.644;2022-08-21T01:02:50;17.90;99.90
16076;DHT22;8142;48.242;11.644;2022-08-21T01:05:16;17.80;99.90
16076;DHT22;8142;48.242;11.644;2022-08-21T01:11:05;17.80;99.90
16076;DHT22;8142;48.242;11.644;2022-08-21T01:13:36;17.80;99.90
16076;DHT22;8142;48.242;11.644;2022-08-21T01:16:04;17.80;99.90
16076;DHT22;8142;48.242;11.644;2022-08-21T01:18:31;17.80;99.90
16076;DHT22;8142;48.242;11.644;2022-08-21T01:23:32;17.80;99.90
16076;DHT22;8142;48.242;11.644;2022-08-21T01:25:58;17.80;99.90
16076;DHT22;8142;48.242;11.644;2022-08-21T01:28:24;17.80;99.90
16076;DHT22;8142;48.242;11.644;2022-08-21T01:30:53;17.80;99.90
16076;DHT22;8142;48.242;11.644;2022-08-21T01:33:22;17.80;99.90
16076;DHT22;8142;48.242;11.644;2022-08-21T01:35:48;17.80;99.90
16076;DHT22;8142;48.242;11.644;2022-08-21T01:38:14;17.70;99.90
16076;DHT22;8142;48.242;11.644;2022-08-21T01:40:40;17.70;99.90
16076;DHT22;8142;48.242;11.644;2022-08-21T01:43:06;17.70;99.90
16076;DHT22;8142;48.242;11.644;2022-08-21T01:45:32;17.70;99.90
16076;DHT22;8142;48.242;11.644;2022-08-21T01:47:57;17.70;99.90
16076;DHT22;8142;48.242;11.644;2022-08-21T01:50:23;17.70;99.90
16076;DHT22;8142;48.242;11.644;2022-08-21T01:52:49;17.70;99.90
16076;DHT22;8142;48.242;11.644;2022-08-21T01:55:17;17.70;99.90
16076;DHT22;8142;48.242;11.644;2022-08-21T01:57:44;17.70;99.90
16076;DHT22;8142;48.242;11.644;2022-08-21T02:00:12;17.60;99.90
16076;DHT22;8142;48.242;11.644;2022-08-21T02:02:40;17.60;99.90
16076;DHT22;8142;48.242;11.644;2022-08-21T02:05:08;17.60;99.90
16076;DHT22;8142;48.242;11.644;2022-08-21T02:07:39;17.60;99.90
16076;DHT22;8142;48.242;11.644;2022-08-21T02:10:07;17.60;99.90
16076;DHT22;8142;48.242;11.644;2022-08-21T02:12:33;17.60;99.90
16076;DHT22;8142;48.242;11.644;2022-08-21T02:14:59;17.60;99.90
16076;DHT22;8142;48.242;11.644;2022-08-21T02:17:26;17.50;99.90
16076;DHT22;8142;48.242;11.644;2022-08-21T02:19:52;17.50;99.90
16076;DHT22;8142;48.242;11.644;2022-08-21T02:22:18;17.50;99.90
16076;DHT22;8142;48.242;11.644;2022-08-21T02:24:43;17.50;99.90
16076;DHT22;8142;48.242;11.644;2022-08-21T02:27:09;17.50;99.90
16076;DHT22;8142;48.242;11.644;2022-08-21T02:29:35;17.50;99.90
16076;DHT22;8142;48.242;11.644;2022-08-21T02:32:01;17.50;99.90
16076;DHT22;8142;48.242;11.644;2022-08-21T02:34:27;17.50;99.90
16076;DHT22;8142;48.242;11.644;2022-08-21T02:36:53;17.50;99.90
16076;DHT22;8142;48.242;11.644;2022-08-21T02:39:19;17.40;99.90
16076;DHT22;8142;48.242;11.644;2022-08-21T02:41:44;17.40;99.90
16076;DHT22;8142;48.242;11.644;2022-08-21T02:44:11;17.40;99.90
16076;DHT22;8142;48.242;11.644;2022-08-21T02:46:36;17.40;99.90
16076;DHT22;8142;48.242;11.644;2022-08-21T02:49:02;17.40;99.90
16076;DHT22;8142;48.242;11.644;2022-08-21T02:51:28;17.40;99.90
16076;DHT22;8142;48.242;11.644;2022-08-21T02:53:54;17.40;99.90
16076;DHT22;8142;48.242;11.644;2022-08-21T02:56:20;17.30;99.90
16076;DHT22;8142;48.242;11.644;2022-08-21T02:58:50;17.30;99.90
16076;DHT22;8142;48.242;11.644;2022-08-21T03:01:17;17.30;99.90
16076;DHT22;8142;48.242;11.644;2022-08-21T03:03:45;17.30;99.90
16076;DHT22;8142;48.242;11.644;2022-08-21T03:06:13;17.20;99.90
16076;DHT22;8142;48.242;11.644;2022-08-21T03:08:40;17.20;99.90
16076;DHT22;8142;48.242;11.644;2022-08-21T03:11:06;17.20;99.90
16076;DHT22;8142;48.242;11.644;2022-08-21T03:13:32;17.20;99.90
16076;DHT22;8142;48.242;11.644;2022-08-21T03:15:58;17.20;99.90
16076;DHT22;8142;48.242;11.644;2022-08-21T03:18:24;17.10;99.90
16076;DHT22;8142;48.242;11.644;2022-08-21T03:20:50;17.10;99.90
16076;DHT22;8142;48.242;11.644;2022-08-21T03:23:17;17.20;99.90
16076;DHT22;8142;48.242;11.644;2022-08-21T03:25:45;17.10;99.90
16076;DHT22;8142;48.242;11.644;2022-08-21T03:28:15;17.10;99.90
16076;DHT22;8142;48.242;11.644;2022-08-21T03:30:42;17.10;99.90
16076;DHT22;8142;48.242;11.644;2022-08-21T03:33:08;17.10;99.90
16076;DHT22;8142;48.242;11.644;2022-08-21T03:35:34;17.10;99.90
16076;DHT22;8142;48.242;11.644;2022-08-21T03:38:01;17.00;99.90
16076;DHT22;8142;48.242;11.644;2022-08-21T03:40:27;17.00;99.90
16076;DHT22;8142;48.242;11.644;2022-08-21T03:42:53;17.00;99.90
16076;DHT22;8142;48.242;11.644;2022-08-21T03:45:20;16.90;99.90
16076;DHT22;8142;48.242;11.644;2022-08-21T03:47:57;17.00;99.90
16076;DHT22;8142;48.242;11.644;2022-08-21T03:50:26;16.90;99.90
16076;DHT22;8142;48.242;11.644;2022-08-21T03:52:53;16.90;99.90
16076;DHT22;8142;48.242;11.644;2022-08-21T03:55:19;16.90;99.90
16076;DHT22;8142;48.242;11.644;2022-08-21T03:57:45;16.90;99.90
16076;DHT22;8142;48.242;11.644;2022-08-21T04:00:12;16.80;99.90
16076;DHT22;8142;48.242;11.644;2022-08-21T04:02:39;16.80;99.90
16076;DHT22;8142;48.242;11.644;2022-08-21T04:05:06;16.80;99.90
16076;DHT22;8142;48.242;11.644;2022-08-21T04:07:33;16.80;99.90
16076;DHT22;8142;48.242;11.644;2022-08-21T04:09:59;16.80;99.90
16076;DHT22;8142;48.242;11.644;2022-08-21T04:12:24;16.80;99.90
16076;DHT22;8142;48.242;11.644;2022-08-21T04:14:50;16.70;99.90
16076;DHT22;8142;48.242;11.644;2022-08-21T04:17:19;16.80;99.90
16076;DHT22;8142;48.242;11.644;2022-08-21T04:19:45;16.80;99.90
16076;DHT22;8142;48.242;11.644;2022-08-21T04:22:11;16.80;99.90
16076;DHT22;8142;48.242;11.644;2022-08-21T04:24:37;16.80;99.90
16076;DHT22;8142;48.242;11.644;2022-08-21T04:27:03;16.70;99.90
16076;DHT22;8142;48.242;11.644;2022-08-21T04:29:28;16.80;99.90
16076;DHT22;8142;48.242;11.644;2022-08-21T04:31:54;16.70;99.90
16076;DHT22;8142;48.242;11.644;2022-08-21T04:34:20;16.70;99.90
16076;DHT22;8142;48.242;11.644;2022-08-21T04:36:46;16.70;99.90
16076;DHT22;8142;48.242;11.644;2022-08-21T04:39:12;16.70;99.90
16076;DHT22;8142;48.242;11.644;2022-08-21T04:41:38;16.70;99.90
16076;DHT22;8142;48.242;11.644;2022-08-21T04:44:04;16.70;99.90
16076;DHT22;8142;48.242;11.644;2022-08-21T04:46:30;16.70;99.90
16076;DHT22;8142;48.242;11.644;2022-08-21T04:48:56;16.70;99.90
16076;DHT22;8142;48.242;11.644;2022-08-21T04:51:29;16.70;99.90
16076;DHT22;8142;48.242;11.644;2022-08-21T04:54:07;16.70;99.90
16076;DHT22;8142;48.242;11.644;2022-08-21T04:56:43;16.70;99.90
16076;DHT22;8142;48.242;11.644;2022-08-21T04:59:17;16.70;99.90
16076;DHT22;8142;48.242;11.644;2022-08-21T05:01:45;16.70;99.90
16076;DHT22;8142;48.242;11.644;2022-08-21T05:04:14;16.70;99.90
16076;DHT22;8142;48.242;11.644;2022-08-21T05:06:45;16.70;99.90
16076;DHT22;8142;48.242;11.644;2022-08-21T05:09:14;16.70;99.90
16076;DHT22;8142;48.242;11.644;2022-08-21T05:11:40;16.70;99.90
16076;DHT22;8142;48.242;11.644;2022-08-21T05:14:07;16.70;99.90
16076;DHT22;8142;48.242;11.644;2022-08-21T05:16:33;16.70;99.90
16076;DHT22;8142;48.242;11.644;2022-08-21T05:18:59;16.70;99.90
16076;DHT22;8142;48.242;11.644;2022-08-21T05:21:25;16.80;99.90
16076;DHT22;8142;48.242;11.644;2022-08-21T05:23:50;16.80;99.90
16076;DHT22;8142;48.242;11.644;2022-08-21T05:26:16;16.80;99.90
16076;DHT22;8142;48.242;11.644;2022-08-21T05:28:42;16.80;99.90
16076;DHT22;8142;48.242;11.644;2022-08-21T05:31:08;16.90;99.90
16076;DHT22;8142;48.242;11.644;2022-08-21T05:33:34;17.00;99.90
16076;DHT22;8142;48.242;11.644;2022-08-21T05:35:59;17.10;99.90
16076;DHT22;8142;48.242;11.644;2022-08-21T05:38:26;17.20;99.90
16076;DHT22;8142;48.242;11.644;2022-08-21T05:40:54;17.40;99.90
16076;DHT22;8142;48.242;11.644;2022-08-21T05:43:20;17.50;99.90
16076;DHT22;8142;48.242;11.644;2022-08-21T05:45:47;17.70;99.90
16076;DHT22;8142;48.242;11.644;2022-08-21T05:48:22;18.00;99.90
16076;DHT22;8142;48.242;11.644;2022-08-21T05:50:49;18.10;99.90
16076;DHT22;8142;48.242;11.644;2022-08-21T05:53:17;18.30;99.90
16076;DHT22;8142;48.242;11.644;2022-08-21T05:55:43;18.40;99.90
16076;DHT22;8142;48.242;11.644;2022-08-21T05:58:09;18.50;99.90
16076;DHT22;8142;48.242;11.644;2022-08-21T06:00:36;18.70;99.90
16076;DHT22;8142;48.242;11.644;2022-08-21T06:03:02;18.80;99.90
16076;DHT22;8142;48.242;11.644;2022-08-21T06:05:28;19.00;99.90
16076;DHT22;8142;48.242;11.644;2022-08-21T06:07:55;19.10;99.90
16076;DHT22;8142;48.242;11.644;2022-08-21T06:10:20;19.30;99.90
16076;DHT22;8142;48.242;11.644;2022-08-21T06:12:46;19.50;99.90
16076;DHT22;8142;48.242;11.644;2022-08-21T06:15:12;19.70;99.90
16076;DHT22;8142;48.242;11.644;2022-08-21T06:17:38;19.90;99.90
16076;DHT22;8142;48.242;11.644;2022-08-21T06:20:04;20.10;99.90
16076;DHT22;8142;48.242;11.644;2022-08-21T06:22:30;20.20;99.90
16076;DHT22;8142;48.242;11.644;2022-08-21T06:24:56;20.40;99.90
16076;DHT22;8142;48.242;11.644;2022-08-21T06:27:22;20.50;99.90
16076;DHT22;8142;48.242;11.644;2022-08-21T06:29:48;20.70;99.90
16076;DHT22;8142;48.242;11.644;2022-08-21T06:32:14;20.90;99.90
16076;DHT22;8142;48.242;11.644;2022-08-21T06:34:41;21.00;99.90
16076;DHT22;8142;48.242;11.644;2022-08-21T06:37:08;21.10;99.90
16076;DHT22;8142;48.242;11.644;2022-08-21T06:39:34;21.30;99.90
16076;DHT22;8142;48.242;11.644;2022-08-21T06:42:00;21.30;99.90
16076;DHT22;8142;48.242;11.644;2022-08-21T06:44:26;21.50;99.90
16076;DHT22;8142;48.242;11.644;2022-08-21T06:46:52;21.50;99.90
16076;DHT22;8142;48.242;11.644;2022-08-21T06:49:18;21.60;99.90
16076;DHT22;8142;48.242;11.644;2022-08-21T06:51:44;21.70;99.90
16076;DHT22;8142;48.242;11.644;2022-08-21T06:54:10;21.70;99.90
16076;DHT22;8142;48.242;11.644;2022-08-21T06:56:36;21.70;99.90
16076;DHT22;8142;48.242;11.644;2022-08-21T06:59:04;21.80;99.90
16076;DHT22;8142;48.242;11.644;2022-08-21T07:01:31;21.80;99.90
16076;DHT22;8142;48.242;11.644;2022-08-21T07:03:57;21.90;99.90
16076;DHT22;8142;48.242;11.644;2022-08-21T07:06:24;21.90;99.90
16076;DHT22;8142;48.242;11.644;2022-08-21T07:08:50;22.00;99.90
16076;DHT22;8142;48.242;11.644;2022-08-21T07:11:25;22.10;99.90
16076;DHT22;8142;48.242;11.644;2022-08-21T07:13:52;22.20;99.90
16076;DHT22;8142;48.242;11.644;2022-08-21T07:16:23;22.30;99.90
16076;DHT22;8142;48.242;11.644;2022-08-21T07:18:49;22.50;99.90
16076;DHT22;8142;48.242;11.644;2022-08-21T07:21:15;22.60;99.90
16076;DHT22;8142;48.242;11.644;2022-08-21T07:23:44;22.70;99.90
16076;DHT22;8142;48.242;11.644;2022-08-21T07:26:12;22.80;99.90
16076;DHT22;8142;48.242;11.644;2022-08-21T07:28:38;22.90;99.90
16076;DHT22;8142;48.242;11.644;2022-08-21T07:31:05;23.00;99.90
16076;DHT22;8142;48.242;11.644;2022-08-21T07:33:33;23.10;99.90
16076;DHT22;8142;48.242;11.644;2022-08-21T07:36:00;23.20;99.90
16076;DHT22;8142;48.242;11.644;2022-08-21T07:38:26;23.30;99.90
16076;DHT22;8142;48.242;11.644;2022-08-21T07:40:55;23.40;99.90
16076;DHT22;8142;48.242;11.644;2022-08-21T07:43:21;23.50;99.90
16076;DHT22;8142;48.242;11.644;2022-08-21T07:45:48;23.60;99.90
16076;DHT22;8142;48.242;11.644;2022-08-21T07:48:15;23.70;99.90
16076;DHT22;8142;48.242;11.644;2022-08-21T07:50:42;23.80;99.90
16076;DHT22;8142;48.242;11.644;2022-08-21T07:53:08;23.80;99.90
16076;DHT22;8142;48.242;11.644;2022-08-21T07:55:34;23.90;99.90
16076;DHT22;8142;48.242;11.644;2022-08-21T07:58:00;24.00;99.90
16076;DHT22;8142;48.242;11.644;2022-08-21T08:00:28;24.10;99.90
16076;DHT22;8142;48.242;11.644;2022-08-21T08:02:54;24.20;99.90
16076;DHT22;8142;48.242;11.644;2022-08-21T08:05:24;24.20;99.90
16076;DHT22;8142;48.242;11.644;2022-08-21T08:07:50;24.30;99.90
16076;DHT22;8142;48.242;11.644;2022-08-21T08:10:17;24.40;99.90
16076;DHT22;8142;48.242;11.644;2022-08-21T08:12:44;24.50;99.90
16076;DHT22;8142;48.242;11.644;2022-08-21T08:15:15;24.60;99.90
16076;DHT22;8142;48.242;11.644;2022-08-21T08:17:41;24.70;99.90
16076;DHT22;8142;48.242;11.644;2022-08-21T08:20:09;24.80;99.90
16076;DHT22;8142;48.242;11.644;2022-08-21T08:22:37;24.90;99.90
16076;DHT22;8142;48.242;11.644;2022-08-21T08:25:04;24.90;99.90
16076;DHT22;8142;48.242;11.644;2022-08-21T08:27:30;25.00;99.90
16076;DHT22;8142;48.242;11.644;2022-08-21T08:29:57;25.10;99.90
16076;DHT22;8142;48.242;11.644;2022-08-21T08:32:23;25.20;99.90
16076;DHT22;8142;48.242;11.644;2022-08-21T08:34:49;25.30;99.90
16076;DHT22;8142;48.242;11.644;2022-08-21T08:37:18;25.40;99.90
16076;DHT22;8142;48.242;11.644;2022-08-21T08:39:44;25.50;99.90
16076;DHT22;8142;48.242;11.644;2022-08-21T08:42:24;25.60;99.90
16076;DHT22;8142;48.242;11.644;2022-08-21T08:45:06;25.60;99.90
16076;DHT22;8142;48.242;11.644;2022-08-21T08:47:37;25.60;99.90
16076;DHT22;8142;48.242;11.644;2022-08-21T08:50:11;25.50;99.90
16076;DHT22;8142;48.242;11.644;2022-08-21T08:53:21;25.30;99.90
16076;DHT22;8142;48.242;11.644;2022-08-21T08:55:48;25.10;99.90
16076;DHT22;8142;48.242;11.644;2022-08-21T08:58:22;24.90;99.90
16076;DHT22;8142;48.242;11.644;2022-08-21T09:00:51;24.60;99.90
16076;DHT22;8142;48.242;11.644;2022-08-21T09:03:17;24.40;99.90
16076;DHT22;8142;48.242;11.644;2022-08-21T09:05:53;24.20;99.90
16076;DHT22;8142;48.242;11.644;2022-08-21T09:11:37;23.80;99.90
16076;DHT22;8142;48.242;11.644;2022-08-21T09:16:47;23.50;99.90
16076;DHT22;8142;48.242;11.644;2022-08-21T09:19:41;23.40;99.90
16076;DHT22;8142;48.242;11.644;2022-08-21T09:22:28;23.40;99.90
16076;DHT22;8142;48.242;11.644;2022-08-21T09:27:35;23.10;99.90
16076;DHT22;8142;48.242;11.644;2022-08-21T09:30:04;23.10;99.90
16076;DHT22;8142;48.242;11.644;2022-08-21T09:32:32;23.00;99.90
16076;DHT22;8142;48.242;11.644;2022-08-21T09:35:22;22.90;99.90
16076;DHT22;8142;48.242;11.644;2022-08-21T09:40:35;22.90;99.90
16076;DHT22;8142;48.242;11.644;2022-08-21T09:45:38;22.80;99.90
16076;DHT22;8142;48.242;11.644;2022-08-21T09:48:17;22.80;99.90
16076;DHT22;8142;48.242;11.644;2022-08-21T09:50:44;22.80;99.90
16076;DHT22;8142;48.242;11.644;2022-08-21T09:53:18;22.90;99.90
16076;DHT22;8142;48.242;11.644;2022-08-21T09:55:58;22.90;99.90
16076;DHT22;8142;48.242;11.644;2022-08-21T09:58:45;22.90;99.90
16076;DHT22;8142;48.242;11.644;2022-08-21T10:01:21;23.00;99.90
16076;DHT22;8142;48.242;11.644;2022-08-21T10:03:48;23.00;99.90
16076;DHT22;8142;48.242;11.644;2022-08-21T10:06:24;23.00;99.90
16076;DHT22;8142;48.242;11.644;2022-08-21T10:08:50;23.00;99.90
16076;DHT22;8142;48.242;11.644;2022-08-21T10:11:17;23.00;99.90
16076;DHT22;8142;48.242;11.644;2022-08-21T10:19:29;23.00;99.90
16076;DHT22;8142;48.242;11.644;2022-08-21T10:22:26;23.00;99.90
16076;DHT22;8142;48.242;11.644;2022-08-21T10:24:56;23.00;99.90
16076;DHT22;8142;48.242;11.644;2022-08-21T10:35:28;22.90;99.90
16076;DHT22;8142;48.242;11.644;2022-08-21T10:38:35;22.90;99.90
16076;DHT22;8142;48.242;11.644;2022-08-21T10:46:42;22.70;99.90
16076;DHT22;8142;48.242;11.644;2022-08-21T10:49:39;22.70;99.90
16076;DHT22;8142;48.242;11.644;2022-08-21T11:00:15;22.60;99.90
16076;DHT22;8142;48.242;11.644;2022-08-21T11:05:19;22.60;99.90
16076;DHT22;8142;48.242;11.644;2022-08-21T11:08:13;22.60;99.90
16076;DHT22;8142;48.242;11.644;2022-08-21T11:10:52;22.60;99.90
16076;DHT22;8142;48.242;11.644;2022-08-21T11:13:33;22.60;99.90
16076;DHT22;8142;48.242;11.644;2022-08-21T11:22:35;22.70;99.90
16076;DHT22;8142;48.242;11.644;2022-08-21T11:24:50;22.80;99.90
16076;DHT22;8142;48.242;11.644;2022-08-21T11:27:27;22.80;99.90
16076;DHT22;8142;48.242;11.644;2022-08-21T11:29:57;22.80;99.90
16076;DHT22;8142;48.242;11.644;2022-08-21T11:35:43;22.90;99.90
16076;DHT22;8142;48.242;11.644;2022-08-21T11:38:30;22.90;99.90
16076;DHT22;8142;48.242;11.644;2022-08-21T11:44:10;22.90;99.90
16076;DHT22;8142;48.242;11.644;2022-08-21T11:46:49;22.90;99.90
16076;DHT22;8142;48.242;11.644;2022-08-21T11:52:07;22.90;99.90
16076;DHT22;8142;48.242;11.644;2022-08-21T11:54:52;22.90;99.90
16076;DHT22;8142;48.242;11.644;2022-08-21T11:57:24;22.90;99.90
16076;DHT22;8142;48.242;11.644;2022-08-21T12:00:20;22.80;99.90
16076;DHT22;8142;48.242;11.644;2022-08-21T12:02:52;22.80;99.90
16076;DHT22;8142;48.242;11.644;2022-08-21T12:05:42;22.70;99.90
16076;DHT22;8142;48.242;11.644;2022-08-21T12:08:13;22.70;99.90
16076;DHT22;8142;48.242;11.644;2022-08-21T12:10:58;22.70;99.90
16076;DHT22;8142;48.242;11.644;2022-08-21T12:13:27;22.70;99.90
16076;DHT22;8142;48.242;11.644;2022-08-21T12:16:06;22.70;99.90
16076;DHT22;8142;48.242;11.644;2022-08-21T12:18:33;22.80;99.90
16076;DHT22;8142;48.242;11.644;2022-08-21T12:23:43;22.90;99.90
16076;DHT22;8142;48.242;11.644;2022-08-21T12:26:13;22.90;99.90
16076;DHT22;8142;48.242;11.644;2022-08-21T12:28:42;22.90;99.90
16076;DHT22;8142;48.242;11.644;2022-08-21T12:31:50;22.90;99.90
16076;DHT22;8142;48.242;11.644;2022-08-21T12:34:17;22.90;99.90
16076;DHT22;8142;48.242;11.644;2022-08-21T12:37:09;22.90;99.90
16076;DHT22;8142;48.242;11.644;2022-08-21T12:39:44;22.80;99.90
16076;DHT22;8142;48.242;11.644;2022-08-21T12:42:20;22.80;99.90
16076;DHT22;8142;48.242;11.644;2022-08-21T12:44:58;22.80;99.90
16076;DHT22;8142;48.242;11.644;2022-08-21T12:47:30;22.70;99.90
16076;DHT22;8142;48.242;11.644;2022-08-21T12:50:05;22.70;99.90
16076;DHT22;8142;48.242;11.644;2022-08-21T12:52:36;22.70;99.90
16076;DHT22;8142;48.242;11.644;2022-08-21T12:55:10;22.70;99.90
16076;DHT22;8142;48.242;11.644;2022-08-21T12:57:39;22.70;99.90
16076;DHT22;8142;48.242;11.644;2022-08-21T13:00:08;22.70;99.90
16076;DHT22;8142;48.242;11.644;2022-08-21T13:02:43;22.70;99.90
16076;DHT22;8142;48.242;11.644;2022-08-21T13:05:15;22.70;99.90
16076;DHT22;8142;48.242;11.644;2022-08-21T13:07:46;22.80;99.90
16076;DHT22;8142;48.242;11.644;2022-08-21T13:10:25;22.90;99.90
16076;DHT22;8142;48.242;11.644;2022-08-21T13:13:00;22.90;99.90
16076;DHT22;8142;48.242;11.644;2022-08-21T13:15:33;22.90;99.90
16076;DHT22;8142;48.242;11.644;2022-08-21T13:18:02;23.00;99.90
16076;DHT22;8142;48.242;11.644;2022-08-21T13:22:56;23.10;99.90
16076;DHT22;8142;48.242;11.644;2022-08-21T13:25:28;23.10;99.90
16076;DHT22;8142;48.242;11.644;2022-08-21T13:28:11;23.10;99.90
16076;DHT22;8142;48.242;11.644;2022-08-21T13:30:50;23.20;99.90
16076;DHT22;8142;48.242;11.644;2022-08-21T13:33:19;23.20;99.90
16076;DHT22;8142;48.242;11.644;2022-08-21T13:38:29;23.30;99.90
16076;DHT22;8142;48.242;11.644;2022-08-21T13:41:13;23.30;99.90
16076;DHT22;8142;48.242;11.644;2022-08-21T13:43:50;23.30;99.90
16076;DHT22;8142;48.242;11.644;2022-08-21T13:46:18;23.30;99.90
16076;DHT22;8142;48.242;11.644;2022-08-21T13:48:46;23.30;99.90
16076;DHT22;8142;48.242;11.644;2022-08-21T13:51:12;23.40;99.90
16076;DHT22;8142;48.242;11.644;2022-08-21T13:56:06;23.40;99.90
16076;DHT22;8142;48.242;11.644;2022-08-21T13:58:44;23.40;99.90
16076;DHT22;8142;48.242;11.644;2022-08-21T14:01:32;23.40;99.90
16076;DHT22;8142;48.242;11.644;2022-08-21T14:06:39;23.40;99.90
16076;DHT22;8142;48.242;11.644;2022-08-21T14:09:14;23.50;99.90
16076;DHT22;8142;48.242;11.644;2022-08-21T14:11:48;23.40;99.90
16076;DHT22;8142;48.242;11.644;2022-08-21T14:14:31;23.40;99.90
16076;DHT22;8142;48.242;11.644;2022-08-21T14:17:03;23.40;99.90
16076;DHT22;8142;48.242;11.644;2022-08-21T14:19:44;23.30;99.90
16076;DHT22;8142;48.242;11.644;2022-08-21T14:22:37;23.30;99.90
16076;DHT22;8142;48.242;11.644;2022-08-21T14:25:26;23.30;99.90
16076;DHT22;8142;48.242;11.644;2022-08-21T14:28:03;23.30;99.90
16076;DHT22;8142;48.242;11.644;2022-08-21T14:30:36;23.30;99.90
16076;DHT22;8142;48.242;11.644;2022-08-21T14:33:04;23.30;99.90
16076;DHT22;8142;48.242;11.644;2022-08-21T14:35:30;23.40;99.90
16076;DHT22;8142;48.242;11.644;2022-08-21T14:37:56;23.30;99.90
16076;DHT22;8142;48.242;11.644;2022-08-21T14:40:24;23.30;99.90
16076;DHT22;8142;48.242;11.644;2022-08-21T14:42:50;23.40;99.90
16076;DHT22;8142;48.242;11.644;2022-08-21T14:45:25;23.40;99.90
16076;DHT22;8142;48.242;11.644;2022-08-21T14:47:52;23.40;99.90
16076;DHT22;8142;48.242;11.644;2022-08-21T14:50:18;23.50;99.90
16076;DHT22;8142;48.242;11.644;2022-08-21T14:52:44;23.40;99.90
16076;DHT22;8142;48.242;11.644;2022-08-21T14:55:12;23.50;99.90
16076;DHT22;8142;48.242;11.644;2022-08-21T14:57:44;23.50;99.90
16076;DHT22;8142;48.242;11.644;2022-08-21T15:00:14;23.40;99.90
16076;DHT22;8142;48.242;11.644;2022-08-21T15:02:42;23.40;99.90
16076;DHT22;8142;48.242;11.644;2022-08-21T15:05:09;23.40;99.90
16076;DHT22;8142;48.242;11.644;2022-08-21T15:07:35;23.40;99.90
16076;DHT22;8142;48.242;11.644;2022-08-21T15:10:01;23.40;99.90
16076;DHT22;8142;48.242;11.644;2022-08-21T15:12:27;23.40;99.90
16076;DHT22;8142;48.242;11.644;2022-08-21T15:14:53;23.30;99.90
16076;DHT22;8142;48.242;11.644;2022-08-21T15:17:19;23.40;99.90
16076;DHT22;8142;48.242;11.644;2022-08-21T15:19:45;23.30;99.90
16076;DHT22;8142;48.242;11.644;2022-08-21T15:22:11;23.30;99.90
16076;DHT22;8142;48.242;11.644;2022-08-21T15:24:37;23.30;99.90
16076;DHT22;8142;48.242;11.644;2022-08-21T15:27:04;23.30;99.90
16076;DHT22;8142;48.242;11.644;2022-08-21T15:29:32;23.30;99.90
16076;DHT22;8142;48.242;11.644;2022-08-21T15:32:25;23.30;99.90
16076;DHT22;8142;48.242;11.644;2022-08-21T15:34:51;23.30;99.90
16076;DHT22;8142;48.242;11.644;2022-08-21T15:37:17;23.30;99.90
16076;DHT22;8142;48.242;11.644;2022-08-21T15:39:43;23.30;99.90
16076;DHT22;8142;48.242;11.644;2022-08-21T15:42:11;23.30;99.90
16076;DHT22;8142;48.242;11.644;2022-08-21T15:44:41;23.20;99.90
16076;DHT22;8142;48.242;11.644;2022-08-21T15:47:17;23.30;99.90
16076;DHT22;8142;48.242;11.644;2022-08-21T15:49:43;23.30;99.90
16076;DHT22;8142;48.242;11.644;2022-08-21T15:52:18;23.20;99.90
16076;DHT22;8142;48.242;11.644;2022-08-21T15:54:45;23.20;99.90
16076;DHT22;8142;48.242;11.644;2022-08-21T15:57:14;23.20;99.90
16076;DHT22;8142;48.242;11.644;2022-08-21T15:59:44;23.20;99.90
16076;DHT22;8142;48.242;11.644;2022-08-21T16:02:17;23.30;99.90
16076;DHT22;8142;48.242;11.644;2022-08-21T16:04:43;23.10;99.90
16076;DHT22;8142;48.242;11.644;2022-08-21T16:07:09;23.10;99.90
16076;DHT22;8142;48.242;11.644;2022-08-21T16:09:36;23.00;99.90
16076;DHT22;8142;48.242;11.644;2022-08-21T16:12:04;23.10;99.90
16076;DHT22;8142;48.242;11.644;2022-08-21T16:14:30;23.00;99.90
16076;DHT22;8142;48.242;11.644;2022-08-21T16:16:57;23.00;99.90
16076;DHT22;8142;48.242;11.644;2022-08-21T16:19:23;23.10;99.90
16076;DHT22;8142;48.242;11.644;2022-08-21T16:21:50;23.00;99.90
16076;DHT22;8142;48.242;11.644;2022-08-21T16:24:16;23.20;99.90
16076;DHT22;8142;48.242;11.644;2022-08-21T16:26:42;23.00;99.90
16076;DHT22;8142;48.242;11.644;2022-08-21T16:29:08;23.00;99.90
16076;DHT22;8142;48.242;11.644;2022-08-21T16:31:34;23.00;99.90
16076;DHT22;8142;48.242;11.644;2022-08-21T16:34:00;22.90;99.90
16076;DHT22;8142;48.242;11.644;2022-08-21T16:36:27;23.00;99.90
16076;DHT22;8142;48.242;11.644;2022-08-21T16:38:54;23.00;99.90
16076;DHT22;8142;48.242;11.644;2022-08-21T16:41:21;22.90;99.90
16076;DHT22;8142;48.242;11.644;2022-08-21T16:43:50;22.90;99.90
16076;DHT22;8142;48.242;11.644;2022-08-21T16:46:17;22.90;99.90
16076;DHT22;8142;48.242;11.644;2022-08-21T16:48:43;22.90;99.90
16076;DHT22;8142;48.242;11.644;2022-08-21T16:51:11;22.90;99.90
16076;DHT22;8142;48.242;11.644;2022-08-21T16:53:37;22.90;99.90
16076;DHT22;8142;48.242;11.644;2022-08-21T16:56:04;22.80;99.90
16076;DHT22;8142;48.242;11.644;2022-08-21T16:58:36;22.80;99.90
16076;DHT22;8142;48.242;11.644;2022-08-21T17:01:06;22.80;99.90
16076;DHT22;8142;48.242;11.644;2022-08-21T17:03:37;22.80;99.90